首页
METAR-TAF:

METAR-TAF

机场 :

石油平台 Norsk Hydro

Oseberg, 挪威

纬度: 60-29-29N, 经度: 2-49-32E, 海拔: 158米

当前天气观测

该预报发布于30分钟前的07:50 UTC
风速19节,风向西转西北
温度 13°C
湿度 88%
气压 1020 hPa
能见度10公里或以上
散云层高于1500英尺
多云层高于3500英尺

METAR: ENOA 080750Z 30019KT 9999 SCT015 BKN035 13/11 Q1020 W///S3

时间: 10:20 (08:20 UTC)

预报

预报有效从08日的 06点(UTC)到 09日的 06点(UTC)
风速25节,风向西转西北
能见度10公里或以上
多云层高于600英尺
成为
从 08日的 06点(UTC)到 08日的 08点(UTC)
散云层高于1500英尺
几率 30% :
短暂存在
从 08日的 06点(UTC)到 08日的 08点(UTC)
能見度: 3000
多云层高于300英尺
多云层高于2500英尺, 积雨云.
轻雾
几率 40%
从 08日的 08点(UTC)到 08日的 12点(UTC)
多云层高于1200英尺
成为
从 08日的 11点(UTC)到 08日的 14点(UTC)
风速12节,风向西转西北
成为
从 09日的 01点(UTC)到 09日的 03点(UTC)
风速10节,风向

TAF: ENOA 0806/0906 30025KT 9999 BKN006 BECMG 0806/0808 SCT015 PROB30 TEMPO 0806/0808 3000 BR BKN003 BKN025CB PROB40 0808/0812 BKN012 BECMG 0811/0814 30012KT BECMG 0901/0903 36010KT

超过4000个机场的气象观测和天气预报(METAR&TAF报告)。

可查询的气象台以黄色和红色小点在地图上表示。

将鼠标移到小点上方,可查看气象台名称。

然后点击查看天气观测和预报。

如需切换地图:点击带黑十字的绿色按钮放大地图;点击带横线的绿色按钮缩小地图;或者点击绿色箭头查看邻近地区的地图。


METAR-TAF: